createdAt,value
2019-05-16T00:00:21.826Z,1.25
2019-05-16T00:02:50.122Z,1.00
2019-05-16T00:05:18.824Z,1.07
2019-05-16T00:07:49.185Z,1.15
2019-05-16T00:10:18.734Z,1.20
2019-05-16T00:12:48.676Z,1.27
2019-05-16T00:15:18.209Z,1.32
2019-05-16T00:17:48.741Z,1.15
2019-05-16T00:20:19.096Z,1.20
2019-05-16T00:22:48.374Z,1.30
2019-05-16T00:25:18.004Z,1.50
2019-05-16T00:27:47.922Z,1.20
2019-05-16T00:30:18.103Z,1.27
2019-05-16T00:32:48.203Z,1.10
2019-05-16T00:35:18.221Z,1.10
2019-05-16T00:37:48.432Z,1.10
2019-05-16T00:40:18.921Z,0.95
2019-05-16T00:42:49.179Z,1.17
2019-05-16T00:45:18.592Z,1.00
2019-05-16T00:47:47.944Z,1.27
2019-05-16T00:50:18.324Z,0.90
2019-05-16T00:52:48.641Z,0.90
2019-05-16T00:55:17.982Z,1.02
2019-05-16T00:57:48.184Z,1.15
2019-05-16T01:00:19.799Z,1.00
2019-05-16T01:02:48.580Z,1.02
2019-05-16T01:05:19.161Z,0.98
2019-05-16T01:07:49.057Z,1.00
2019-05-16T01:10:18.285Z,1.22
2019-05-16T01:12:48.109Z,1.32
2019-05-16T01:15:18.353Z,1.10
2019-05-16T01:17:48.348Z,1.37
2019-05-16T01:20:18.972Z,1.25
2019-05-16T01:22:48.820Z,1.35
2019-05-16T01:25:19.288Z,1.25
2019-05-16T01:27:47.706Z,1.00
2019-05-16T01:30:18.452Z,1.00
2019-05-16T01:32:46.887Z,1.05
2019-05-16T01:35:16.229Z,1.40
2019-05-16T01:37:44.507Z,1.10
2019-05-16T01:40:12.965Z,1.30
2019-05-16T01:42:41.534Z,1.32
2019-05-16T01:45:10.463Z,1.00
2019-05-16T01:47:39.445Z,1.20
2019-05-16T01:50:10.685Z,1.22
2019-05-16T01:52:38.959Z,1.20
2019-05-16T01:55:08.395Z,1.15
2019-05-16T01:57:38.849Z,1.40
2019-05-16T02:00:08.535Z,1.07
2019-05-16T02:02:38.651Z,1.30
2019-05-16T02:05:08.257Z,1.45
2019-05-16T02:07:38.793Z,1.00
2019-05-16T02:10:08.528Z,1.40
2019-05-16T02:12:38.522Z,1.10
2019-05-16T02:15:08.009Z,1.10
2019-05-16T02:17:38.557Z,1.42
2019-05-16T02:20:08.654Z,1.20
2019-05-16T02:22:39.061Z,1.20
2019-05-16T02:25:07.836Z,1.40
2019-05-16T02:27:38.173Z,1.20
2019-05-16T02:30:06.475Z,1.15
2019-05-16T02:32:34.749Z,1.20
2019-05-16T02:35:03.038Z,1.10
2019-05-16T02:37:34.705Z,1.42
2019-05-16T02:40:01.841Z,0.98
2019-05-16T02:42:31.061Z,1.30
2019-05-16T02:45:02.487Z,1.20
2019-05-16T02:47:31.484Z,1.25
2019-05-16T02:50:01.126Z,1.30
2019-05-16T02:52:31.703Z,1.27
2019-05-16T02:55:00.899Z,1.57
2019-05-16T02:57:31.715Z,1.20
2019-05-16T03:00:01.665Z,1.42
2019-05-16T03:02:31.232Z,1.30
2019-05-16T03:05:00.906Z,1.40
2019-05-16T03:07:41.273Z,1.40
2019-05-16T03:10:01.501Z,1.25
2019-05-16T03:12:31.393Z,1.20
2019-05-16T03:15:02.274Z,1.52
2019-05-16T03:17:33.145Z,1.20
2019-05-16T03:20:02.810Z,1.45
2019-05-16T03:22:31.694Z,1.10
2019-05-16T03:25:01.201Z,1.55
2019-05-16T03:27:30.808Z,1.60
2019-05-16T03:30:01.709Z,1.40
2019-05-16T03:32:33.926Z,1.50
2019-05-16T03:35:04.534Z,1.45
2019-05-16T03:37:30.749Z,1.30
2019-05-16T03:40:00.507Z,1.40
2019-05-16T03:42:31.038Z,1.40
2019-05-16T03:45:02.149Z,1.40
2019-05-16T03:47:31.307Z,1.32
2019-05-16T03:50:00.572Z,1.55
2019-05-16T03:52:31.017Z,1.37
2019-05-16T03:55:01.601Z,1.37
2019-05-16T03:57:30.737Z,1.50
2019-05-16T04:00:00.604Z,1.52
2019-05-16T04:02:30.964Z,1.52
2019-05-16T04:05:01.694Z,1.75
2019-05-16T04:07:31.779Z,1.50
2019-05-16T04:10:02.312Z,1.50
2019-05-16T04:12:30.857Z,1.40
2019-05-16T04:15:01.935Z,1.22
2019-05-16T04:17:31.771Z,1.50
2019-05-16T04:20:01.946Z,1.50
2019-05-16T04:22:31.753Z,1.52
2019-05-16T04:25:02.024Z,1.40
2019-05-16T04:27:30.945Z,1.77
2019-05-16T04:30:01.761Z,2.00
2019-05-16T04:32:31.455Z,1.55
2019-05-16T04:35:02.425Z,1.90
2019-05-16T04:37:31.438Z,1.55
2019-05-16T04:40:01.381Z,1.87
2019-05-16T04:42:31.002Z,1.50
2019-05-16T04:45:01.122Z,2.08
2019-05-16T04:47:31.767Z,1.87
2019-05-16T04:50:01.668Z,1.95
2019-05-16T04:52:30.671Z,1.80
2019-05-16T04:55:00.748Z,1.95
2019-05-16T04:57:31.235Z,1.90
2019-05-16T05:00:02.270Z,2.15
2019-05-16T05:02:30.950Z,1.47
2019-05-16T05:05:01.247Z,2.08
2019-05-16T05:07:31.355Z,2.02
2019-05-16T05:10:00.605Z,2.25
2019-05-16T05:12:31.418Z,2.05
2019-05-16T05:15:01.413Z,2.30
2019-05-16T05:17:30.661Z,1.92
2019-05-16T05:20:01.133Z,1.90
2019-05-16T05:22:30.415Z,1.77
2019-05-16T05:25:00.118Z,2.08
2019-05-16T05:27:30.321Z,2.05
2019-05-16T05:30:01.082Z,1.92
2019-05-16T05:32:30.564Z,2.30
2019-05-16T05:34:59.915Z,2.00
2019-05-16T05:37:29.832Z,2.35
2019-05-16T05:39:59.955Z,1.80
2019-05-16T05:42:30.610Z,1.87
2019-05-16T05:45:00.335Z,2.42
2019-05-16T05:47:30.753Z,2.02
2019-05-16T05:50:00.609Z,1.90
2019-05-16T05:52:30.293Z,1.82
2019-05-16T05:55:00.640Z,2.00
2019-05-16T05:57:30.082Z,1.60
2019-05-16T06:00:00.516Z,2.30
2019-05-16T06:02:30.896Z,1.62
2019-05-16T06:04:59.778Z,1.80
2019-05-16T06:07:30.022Z,2.00
2019-05-16T06:10:00.307Z,2.02
2019-05-16T06:12:30.279Z,1.80
2019-05-16T06:15:05.957Z,2.22
2019-05-16T06:17:30.562Z,1.70
2019-05-16T06:20:00.223Z,2.30
2019-05-16T06:22:29.866Z,1.90
2019-05-16T06:25:01.135Z,2.05
2019-05-16T06:27:30.307Z,2.17
2019-05-16T06:30:00.517Z,1.92
2019-05-16T06:32:30.384Z,1.92
2019-05-16T06:35:00.096Z,1.85
2019-05-16T06:37:30.746Z,1.92
2019-05-16T06:40:00.636Z,1.47
2019-05-16T06:42:29.903Z,1.77
2019-05-16T06:45:00.605Z,1.50
2019-05-16T06:47:30.550Z,1.32
2019-05-16T06:50:00.220Z,1.70
2019-05-16T06:52:30.181Z,1.67
2019-05-16T06:55:00.755Z,1.62
2019-05-16T06:57:30.200Z,1.60
2019-05-16T07:00:00.659Z,1.85
2019-05-16T07:02:33.624Z,1.60
2019-05-16T07:05:01.147Z,1.40
2019-05-16T07:07:30.802Z,1.62
2019-05-16T07:10:04.156Z,1.57
2019-05-16T07:12:31.510Z,1.50
2019-05-16T07:15:01.702Z,1.50
2019-05-16T07:17:30.644Z,1.52
2019-05-16T07:20:00.779Z,1.30
2019-05-16T07:22:31.174Z,1.62
2019-05-16T07:24:59.901Z,1.60
2019-05-16T07:27:30.653Z,1.72
2019-05-16T07:30:00.858Z,1.90
2019-05-16T07:32:30.223Z,1.42
2019-05-16T07:35:00.282Z,1.52
2019-05-16T07:37:28.770Z,1.30
2019-05-16T07:40:01.049Z,1.35
2019-05-16T07:42:27.098Z,1.85
2019-05-16T07:44:55.404Z,1.77
2019-05-16T07:47:23.672Z,1.80
2019-05-16T07:49:52.577Z,1.55
2019-05-16T07:52:21.152Z,1.60
2019-05-16T07:54:50.761Z,2.20
2019-05-16T07:57:22.682Z,1.67
2019-05-16T07:59:50.717Z,1.77
2019-05-16T08:02:20.847Z,1.87
2019-05-16T08:04:50.161Z,1.40
2019-05-16T08:07:20.091Z,1.90
2019-05-16T08:09:50.501Z,1.70
2019-05-16T08:12:25.480Z,1.60
2019-05-16T08:14:50.138Z,1.60
2019-05-16T08:17:21.434Z,1.65
2019-05-16T08:19:50.628Z,1.90
2019-05-16T08:22:18.692Z,1.67
2019-05-16T08:24:46.954Z,1.90
2019-05-16T08:27:15.267Z,1.77
2019-05-16T08:29:43.568Z,1.60
2019-05-16T08:32:11.879Z,1.87
2019-05-16T08:34:40.930Z,1.80
2019-05-16T08:39:41.345Z,1.60
2019-05-16T08:42:13.195Z,1.60
2019-05-16T08:47:11.837Z,1.87
2019-05-16T08:49:42.123Z,1.80
2019-05-16T08:50:08.650Z,1.40
2019-05-16T08:52:11.592Z,1.60
2019-05-16T08:54:43.880Z,1.75
2019-05-16T08:57:26.080Z,2.17
2019-05-16T08:59:41.078Z,1.90
2019-05-16T09:02:12.526Z,2.10
2019-05-16T09:04:43.882Z,1.60
2019-05-16T09:07:12.462Z,1.87
2019-05-16T09:09:44.294Z,1.70
2019-05-16T09:10:11.186Z,1.72
2019-05-16T09:12:09.723Z,2.00
2019-05-16T09:14:39.065Z,2.00
2019-05-16T09:17:07.772Z,2.10
2019-05-16T09:19:36.845Z,2.08
2019-05-16T09:22:07.341Z,2.15
2019-05-16T09:24:37.679Z,2.20
2019-05-16T09:27:11.420Z,2.10
2019-05-16T09:29:36.650Z,2.33
2019-05-16T09:32:20.330Z,2.37
2019-05-16T09:34:37.958Z,2.30
2019-05-16T09:37:08.169Z,1.90
2019-05-16T09:39:37.084Z,2.37
2019-05-16T09:42:08.001Z,2.02
2019-05-16T09:44:37.001Z,2.15
2019-05-16T09:47:07.606Z,2.62
2019-05-16T09:49:37.130Z,2.15
2019-05-16T09:52:07.523Z,2.33
2019-05-16T09:54:37.865Z,1.75
2019-05-16T09:57:06.645Z,2.35
2019-05-16T09:59:36.995Z,2.30
2019-05-16T10:02:07.283Z,1.90
2019-05-16T10:04:36.813Z,2.20
2019-05-16T10:07:06.727Z,1.90
2019-05-16T10:09:42.018Z,2.52
2019-05-16T10:12:14.704Z,2.30
2019-05-16T10:14:37.632Z,2.40
2019-05-16T10:17:05.285Z,2.20
2019-05-16T10:19:33.604Z,2.00
2019-05-16T10:22:01.870Z,1.90
2019-05-16T10:24:30.183Z,2.05
2019-05-16T10:26:58.454Z,2.00
2019-05-16T10:29:27.501Z,2.22
2019-05-16T10:31:56.843Z,2.20
2019-05-16T10:34:26.590Z,2.12
2019-05-16T10:36:57.348Z,2.42
2019-05-16T10:39:26.801Z,2.30
2019-05-16T10:41:57.370Z,2.10
2019-05-16T10:44:27.816Z,2.37
2019-05-16T10:46:55.177Z,2.15
2019-05-16T10:49:34.384Z,2.00
2019-05-16T10:51:53.489Z,2.60
2019-05-16T10:54:22.022Z,1.82
2019-05-16T10:56:50.405Z,2.00
2019-05-16T11:01:48.763Z,2.27
2019-05-16T11:04:28.585Z,2.25
2019-05-16T11:06:47.061Z,2.30
2019-05-16T11:09:17.330Z,2.55
2019-05-16T11:11:47.604Z,2.52
2019-05-16T11:14:17.384Z,2.50
2019-05-16T11:16:47.436Z,2.50
2019-05-16T11:19:21.340Z,2.80
2019-05-16T11:21:46.884Z,2.80
2019-05-16T11:24:15.546Z,2.85
2019-05-16T11:26:43.780Z,2.65
2019-05-16T11:29:12.093Z,2.47
2019-05-16T11:31:40.388Z,2.40
2019-05-16T11:34:08.687Z,2.22
2019-05-16T11:36:37.590Z,2.25
2019-05-16T11:39:08.637Z,2.80
2019-05-16T11:41:37.247Z,2.40
2019-05-16T11:44:06.710Z,2.35
2019-05-16T11:46:37.445Z,3.22
2019-05-16T11:49:05.324Z,3.12
2019-05-16T11:51:33.714Z,2.80
2019-05-16T11:54:01.969Z,3.20
2019-05-16T11:56:30.241Z,3.20
2019-05-16T11:58:58.803Z,3.17
2019-05-16T12:01:27.717Z,3.37
2019-05-16T12:03:57.556Z,3.33
2019-05-16T12:06:26.800Z,3.22
2019-05-16T12:08:55.290Z,3.40
2019-05-16T12:11:23.652Z,3.37
2019-05-16T12:13:52.316Z,3.58
2019-05-16T12:16:20.617Z,3.60
2019-05-16T12:18:48.889Z,4.08
2019-05-16T12:21:17.621Z,4.08
2019-05-16T12:23:47.298Z,4.12
2019-05-16T12:26:17.501Z,4.25
2019-05-16T12:28:45.818Z,4.62
2019-05-16T12:31:17.136Z,4.03
2019-05-16T12:33:44.127Z,4.30
2019-05-16T12:36:12.435Z,4.85
2019-05-16T12:38:40.728Z,5.03
2019-05-16T12:41:09.039Z,5.30
2019-05-16T12:43:48.216Z,5.65
2019-05-16T12:46:07.773Z,5.05
2019-05-16T12:48:37.296Z,4.50
2019-05-16T12:51:08.504Z,5.58
2019-05-16T12:53:36.726Z,5.80
2019-05-16T12:56:05.254Z,5.83
2019-05-16T12:58:42.240Z,5.35
2019-05-16T13:01:03.577Z,5.62
2019-05-16T13:03:31.918Z,5.30
2019-05-16T13:06:00.213Z,4.78
2019-05-16T13:08:53.617Z,5.90
2019-05-16T13:11:27.023Z,5.50
2019-05-16T13:14:06.657Z,4.78
2019-05-16T13:16:37.607Z,4.40
2019-05-16T13:19:07.191Z,4.30
2019-05-16T13:21:38.151Z,4.70
2019-05-16T13:24:08.649Z,4.10
2019-05-16T13:26:39.989Z,4.20
2019-05-16T13:29:10.416Z,4.60
2019-05-16T13:31:47.635Z,4.92
2019-05-16T13:34:17.800Z,4.15
2019-05-16T13:36:52.428Z,5.05
2019-05-16T13:39:21.087Z,5.10
2019-05-16T13:41:49.431Z,5.90
2019-05-16T13:44:22.175Z,5.83
2019-05-16T13:46:47.710Z,5.75
2019-05-16T13:49:18.039Z,6.67
2019-05-16T13:51:46.004Z,6.97
2019-05-16T13:54:14.290Z,6.80
2019-05-16T13:56:42.579Z,6.80
2019-05-16T13:59:10.864Z,6.20
2019-05-16T14:01:39.167Z,6.72
2019-05-16T14:04:09.843Z,7.10
2019-05-16T14:06:37.499Z,6.90
2019-05-16T14:09:07.619Z,7.50
2019-05-16T14:11:36.604Z,7.53
2019-05-16T14:14:05.634Z,7.33
2019-05-16T14:16:33.954Z,8.15
2019-05-16T14:19:02.241Z,7.60
2019-05-16T14:21:30.529Z,7.60
2019-05-16T14:23:58.816Z,7.37
2019-05-16T14:26:27.388Z,7.42
2019-05-16T14:28:57.767Z,8.10
2019-05-16T14:31:25.695Z,7.47
2019-05-16T14:33:53.963Z,7.42
2019-05-16T14:36:22.619Z,6.92
2019-05-16T14:38:50.879Z,7.08
2019-05-16T14:41:19.188Z,6.85
2019-05-16T14:43:47.484Z,6.87
2019-05-16T14:46:18.324Z,7.20
2019-05-16T14:48:46.094Z,6.95
2019-05-16T14:51:14.394Z,7.35
2019-05-16T14:53:42.687Z,6.33
2019-05-16T14:56:10.997Z,6.85
2019-05-16T14:58:39.343Z,6.92
2019-05-16T15:01:07.762Z,7.25
2019-05-16T15:03:36.578Z,7.35
2019-05-16T15:06:08.064Z,7.20
2019-05-16T15:08:35.379Z,5.87
2019-05-16T15:11:03.661Z,7.10
2019-05-16T15:13:31.963Z,7.65
2019-05-16T15:16:00.541Z,7.75
2019-05-16T15:18:28.862Z,7.70
2019-05-16T15:20:57.592Z,7.92
2019-05-16T15:23:28.458Z,8.40
2019-05-16T15:25:56.045Z,8.15
2019-05-16T15:28:27.693Z,8.58
2019-05-16T15:30:54.359Z,8.98
2019-05-16T15:33:22.686Z,9.90
2019-05-16T15:35:50.976Z,9.03
2019-05-16T15:38:19.302Z,9.83
2019-05-16T15:40:48.259Z,9.28
2019-05-16T15:43:18.276Z,10.05
2019-05-16T15:45:52.133Z,9.63
2019-05-16T15:48:17.347Z,11.15
2019-05-16T15:50:45.771Z,9.85
2019-05-16T15:53:14.344Z,10.85
2019-05-16T15:55:43.317Z,10.10
2019-05-16T15:58:11.626Z,11.22
2019-05-16T16:00:42.257Z,11.03
2019-05-16T16:03:10.728Z,12.03
2019-05-16T16:05:39.048Z,9.60
2019-05-16T16:08:07.437Z,11.08
2019-05-16T16:10:37.980Z,12.25
2019-05-16T16:13:10.294Z,12.63
2019-05-16T16:15:50.297Z,10.88
2019-05-16T16:18:09.252Z,12.73
2019-05-16T16:20:37.935Z,11.68
2019-05-16T16:23:06.928Z,11.20
2019-05-16T16:25:35.481Z,11.75
2019-05-16T16:28:07.119Z,13.38
2019-05-16T16:30:37.081Z,13.30
2019-05-16T16:33:18.959Z,11.20
2019-05-16T16:35:37.968Z,12.37
2019-05-16T16:38:06.976Z,13.10
2019-05-16T16:40:37.393Z,13.13
2019-05-16T16:43:07.754Z,13.50
2019-05-16T16:45:34.961Z,14.75
2019-05-16T16:48:03.271Z,15.03
2019-05-16T16:50:31.587Z,15.53
2019-05-16T16:52:59.895Z,14.95
2019-05-16T16:55:28.204Z,16.37
2019-05-16T16:57:59.573Z,15.48
2019-05-16T17:00:27.977Z,15.20
2019-05-16T17:03:03.206Z,16.42
2019-05-16T17:05:26.702Z,15.48
2019-05-16T17:07:57.137Z,14.05
2019-05-16T17:10:27.471Z,15.35
2019-05-16T17:12:57.627Z,14.75
2019-05-16T17:15:27.270Z,15.65
2019-05-16T17:17:57.396Z,14.83
2019-05-16T17:20:25.787Z,14.80
2019-05-16T17:22:54.079Z,16.30
2019-05-16T17:25:22.400Z,16.20
2019-05-16T17:27:50.730Z,16.25
2019-05-16T17:30:20.209Z,16.75
2019-05-16T17:32:48.475Z,17.95
2019-05-16T17:35:18.670Z,17.12
2019-05-16T17:37:48.464Z,18.12
2019-05-16T17:40:17.885Z,18.62
2019-05-16T17:42:47.546Z,17.62
2019-05-16T17:45:18.071Z,18.77
2019-05-16T17:47:46.763Z,18.95
2019-05-16T17:50:17.237Z,19.80
2019-05-16T17:52:47.636Z,18.48
2019-05-16T17:55:17.198Z,19.00
2019-05-16T17:57:46.166Z,21.35
2019-05-16T18:00:22.210Z,22.02
2019-05-16T18:02:46.555Z,20.30
2019-05-16T18:05:16.986Z,20.35
2019-05-16T18:07:47.505Z,20.72
2019-05-16T18:10:17.494Z,21.23
2019-05-16T18:12:48.080Z,18.50
2019-05-16T18:15:18.965Z,20.20
2019-05-16T18:17:47.250Z,20.57
2019-05-16T18:20:15.733Z,22.87
2019-05-16T18:22:44.016Z,22.22
2019-05-16T18:25:12.686Z,23.85
2019-05-16T18:27:40.978Z,22.25
2019-05-16T18:30:09.743Z,24.02
2019-05-16T18:32:38.034Z,24.02
2019-05-16T18:35:08.071Z,25.68
2019-05-16T18:37:36.709Z,24.60
2019-05-16T18:40:08.433Z,24.32
2019-05-16T18:42:37.121Z,24.43
2019-05-16T18:45:07.285Z,24.07
2019-05-16T18:47:37.841Z,24.25
2019-05-16T18:50:10.005Z,22.58
2019-05-16T18:52:38.283Z,22.15
2019-05-16T18:55:08.697Z,21.40
2019-05-16T18:57:37.725Z,22.27
2019-05-16T19:00:10.831Z,19.32
2019-05-16T19:02:38.260Z,18.82
2019-05-16T19:05:07.168Z,19.73
2019-05-16T19:07:36.937Z,17.62
2019-05-16T19:10:07.026Z,18.37
2019-05-16T19:12:37.157Z,19.35
2019-05-16T19:15:07.349Z,20.05
2019-05-16T19:17:35.711Z,20.12
2019-05-16T19:20:07.043Z,20.37
2019-05-16T19:22:37.216Z,21.87
2019-05-16T19:25:07.593Z,23.32
2019-05-16T19:27:37.031Z,23.02
2019-05-16T19:30:07.303Z,22.10
2019-05-16T19:32:38.997Z,21.93
2019-05-16T19:35:07.339Z,22.10
2019-05-16T19:37:40.328Z,22.73
2019-05-16T19:40:06.543Z,23.98
2019-05-16T19:42:36.870Z,24.37
2019-05-16T19:45:08.577Z,24.55
2019-05-16T19:47:40.981Z,25.45
2019-05-16T19:50:07.843Z,25.02
2019-05-16T19:52:36.789Z,23.90
2019-05-16T19:55:07.274Z,25.55
2019-05-16T19:57:37.398Z,24.98
2019-05-16T20:00:07.442Z,25.75
2019-05-16T20:02:36.842Z,25.08
2019-05-16T20:05:06.976Z,25.23
2019-05-16T20:07:37.262Z,25.52
2019-05-16T20:10:09.554Z,25.95
2019-05-16T20:12:38.054Z,24.50
2019-05-16T20:15:11.445Z,27.00
2019-05-16T20:17:50.870Z,25.27
2019-05-16T20:20:08.685Z,24.77
2019-05-16T20:22:37.065Z,25.05
2019-05-16T20:25:06.453Z,23.02
2019-05-16T20:27:36.787Z,26.33
2019-05-16T20:30:07.863Z,24.20
2019-05-16T20:32:37.129Z,26.65
2019-05-16T20:35:09.007Z,25.48
2019-05-16T20:37:36.999Z,27.32
2019-05-16T20:40:09.921Z,24.75
2019-05-16T20:42:38.579Z,29.10
2019-05-16T20:45:08.109Z,26.48
2019-05-16T20:47:36.419Z,26.65
2019-05-16T20:50:07.676Z,26.95
2019-05-16T20:52:37.855Z,26.75
2019-05-16T20:55:07.380Z,25.25
2019-05-16T20:57:37.656Z,26.57
2019-05-16T21:00:07.320Z,23.38
2019-05-16T21:02:37.930Z,26.25
2019-05-16T21:05:06.715Z,25.52
2019-05-16T21:07:37.370Z,26.62
2019-05-16T21:10:07.992Z,25.25
2019-05-16T21:12:40.049Z,28.05
2019-05-16T21:15:08.268Z,26.95
2019-05-16T21:17:36.541Z,25.20
2019-05-16T21:20:07.411Z,27.48
2019-05-16T21:22:37.100Z,27.58
2019-05-16T21:25:06.023Z,28.57
2019-05-16T21:27:34.285Z,27.98
2019-05-16T21:30:02.600Z,25.45
2019-05-16T21:32:30.876Z,27.50
2019-05-16T21:34:59.171Z,28.35
2019-05-16T21:37:27.465Z,27.98
2019-05-16T21:39:59.468Z,27.93
2019-05-16T21:42:27.080Z,25.82
2019-05-16T21:44:57.026Z,26.17
2019-05-16T21:47:27.536Z,23.00
2019-05-16T21:49:56.911Z,25.70
2019-05-16T21:52:28.669Z,26.50
2019-05-16T21:54:56.512Z,26.02
2019-05-16T21:57:26.890Z,27.17
2019-05-16T21:59:57.113Z,26.75
2019-05-16T22:02:26.554Z,25.43
2019-05-16T22:04:56.900Z,23.92
2019-05-16T22:07:33.232Z,26.75
2019-05-16T22:09:56.966Z,27.58
2019-05-16T22:12:26.467Z,26.70
2019-05-16T22:14:57.095Z,28.00
2019-05-16T22:17:24.903Z,28.20
2019-05-16T22:19:56.412Z,28.50
2019-05-16T22:22:27.598Z,28.40
2019-05-16T22:24:57.104Z,28.52
2019-05-16T22:27:26.922Z,29.65
2019-05-16T22:29:56.777Z,27.50
2019-05-16T22:32:27.043Z,29.25
2019-05-16T22:34:57.007Z,28.50
2019-05-16T22:37:26.565Z,27.60
2019-05-16T22:39:59.423Z,27.58
2019-05-16T22:42:26.805Z,26.95
2019-05-16T22:44:55.179Z,25.32
2019-05-16T22:47:23.461Z,28.42
2019-05-16T22:49:51.828Z,23.92
2019-05-16T22:52:20.136Z,25.48
2019-05-16T22:54:48.421Z,27.45
2019-05-16T22:57:17.585Z,26.75
2019-05-16T22:59:46.194Z,28.20
2019-05-16T23:02:16.686Z,27.10
2019-05-16T23:04:44.534Z,27.05
2019-05-16T23:07:13.082Z,28.87
2019-05-16T23:09:41.385Z,28.62
2019-05-16T23:12:09.662Z,28.02
2019-05-16T23:14:37.954Z,30.15
2019-05-16T23:17:06.823Z,31.02
2019-05-16T23:19:36.756Z,31.60
2019-05-16T23:22:07.485Z,33.73
2019-05-16T23:24:36.938Z,33.25
2019-05-16T23:27:06.975Z,33.65
2019-05-16T23:29:36.789Z,32.25
2019-05-16T23:32:07.423Z,35.13
2019-05-16T23:34:37.378Z,35.17
2019-05-16T23:37:06.450Z,35.08
2019-05-16T23:39:34.902Z,34.63
2019-05-16T23:42:03.208Z,34.38
2019-05-16T23:44:31.561Z,34.70
2019-05-16T23:46:59.865Z,34.15
2019-05-16T23:49:28.143Z,34.15
2019-05-16T23:51:56.852Z,32.98
2019-05-16T23:54:27.620Z,32.63
2019-05-16T23:56:57.269Z,31.82
2019-05-16T23:59:27.574Z,32.10
